FCBBFCPP

Guest
Details From FCBB - MAYA MAYA
To FCPP - POINTE NOIRE
Flight Number -
Tags generated
Created
Modified
Stats Distance 204 nm / 379 km
Max Altitude 20,900 ft / 6,370 m
Waypoints 3
Social Downloads 2
Likes 0
Share VATSIM

Download

Looking for another format? Having issues loading an existing format? Contact us
Advertisement - Login to hide

Notes

Basic altitude profile: - Ascent Rate: 2500ft/min - Ascent Speed: 250kts - Cruise Altitude: 24000ft - Cruise Speed: 420kts - Descent Rate: 1500ft/min - Descent Speed: 250kts Options: - Use NATs: yes - Use PACOTS: yes - Use low airways: yes - Use high airways: yes

Route

FCBB VORAX FCPP

ID Type Via Altitude Latitude Longitude Leg Dist Tot Dist Heading (true) Name
O FCBB APT - 0 ft / 0 m -4.25170˚ 15.25303˚ - 0 nm - MAYA MAYA
VORAX FIX - 20,900 ft / 6,370 m -4.53778˚ 13.57722˚ 101 nm 101 nm 260° / 260° -
O FCPP APT - 0 ft / 0 m -4.81603˚ 11.88660˚ 102 nm 204 nm 261° / 261° POINTE NOIRE

Altitude Profile

Advertisement - Login to hide

Weather


0- 5 10 15 20 25 30 35+ Temperature / ° C

Clouds and Precipitation
Forecast for 2017-12-15 18:00 UTC. Updated an hour ago

Ground ~20,000 ft ~40,000 ft Winds

FCBB

Details ICAO FCBB (BZV)
Name MAYA MAYA
Region Republic of the Congo
Timezone Africa/Brazzaville (UTC+1.0)
Stats Elevation 1,048 ft / 319 m (AMSL)
Location -4.251698° 15.253029°
Runways 1
Magnetic Variation 1.352° W

METAR

FCBB 151400Z 27003KT 9000 FEW010 34/21 Q1008 NOSIG

Decode

TAF

TAF FCBB 151100Z 1512/1618 23005KT 8000 FEW020 BECMG 1512/1513 FEW023 FEW030CB PROB30 1514/1517 4000 TSRA BECMG 1518/1519 FEW016 BECMG 1612/1614 SCT023 FEW030CB TEMPO 1616/1618 TS

Decode

Departure Runways

ID Width Length Bearing (true) Bearing (mag) Surface Threshold Offset Overrun Length
05 148 ft / 45 m 10,849 ft / 3,307 m 49.91° 51.26° Asphalt 0 ft / 0 m 275 ft / 84 m
23 148 ft / 45 m 10,849 ft / 3,307 m 229.91° 231.26° Asphalt 0 ft / 0 m 275 ft / 84 m

FCPP

Details ICAO FCPP (PNR)
Name POINTE NOIRE
Region Republic of the Congo
Timezone Africa/Brazzaville (UTC+1.0)
Stats Elevation 55 ft / 17 m (AMSL)
Location -4.816026° 11.886596°
Runways 1
Magnetic Variation 2.550° W

METAR

FCPP 151400Z 26007KT 210V310 9999 FEW016 FEW030CB SCT033 29/24 Q1009 NOSIG

Decode

TAF

TAF FCPP 151100Z 1512/1612 25006KT 9999 BKN020 BECMG 1512/1514 SCT023 FEW030CB TEMPO 1518/1521 TS PROB30 1522/1601 4000 TSRA BECMG 1602/1603 FEW010

Decode

Destination Runways

ID Width Length Bearing (true) Bearing (mag) Surface Threshold Offset Overrun Length
17 148 ft / 45 m 8,577 ft / 2,614 m 166.09° 168.64° Asphalt 0 ft / 0 m 328 ft / 100 m
35 148 ft / 45 m 8,577 ft / 2,614 m 346.09° 348.64° Asphalt 0 ft / 0 m 328 ft / 100 m

Popular Alternatives